Wetterdaten September 2003

Datum Tiefsttemp. Hchsttemp. Luftdruck Regen Wind
01.09.2003 7,6 C 17,4 C 1018 hpa 6,2 mm 9,4 km/h
02.09.2003 7,2 C 19,1 C 1024 hpa 0,0 mm 9,4 km/h
03.09.2003 6,5 C 21,1 C 1029 hpa 0,0 mm 10,8 km/h
04.09.2003 9,1 C 22,5 C 1027 hpa 0,0 mm 7,2 km/h
05.09.2003 10,8 C 25,4 C 1019 hpa 0,0 mm 8,6 km/h
06.09.2003 13,3 C 23,6 C 1016 hpa 0,9 mm 10,1 km/h
07.09.2003 12,2 C 20,2 C 1014 hpa 2,0 mm 4,2 km/h
08.09.2003 10,8 C 20,3 C 1008 hpa 10,0 mm 7,9 km/h
09.09.2003 8,2 C 21,6 C 1011 hpa 0,0 mm 10,8 km/h
10.09.2003 10,4 C 16,7 C 1011 hpa 6,7 mm 18,3 km/h
11.09.2003 9,0 C 17,8 C 1018 hpa 1,1 mm 16,2 km/h
12.09.2003 10,1 C 21,2 C 1026 hpa 0,0 mm 8,6 km/h
13.09.2003 11,1 C 18,4 C 1030 hpa 0,4 mm 13,3 km/h
14.09.2003 6,7 C 20,3 C 1028 hpa 0,0 mm 4,3 km/h
15.09.2003 10,8 C 23,3 C 1026 hpa 0,0 mm 7,2 km/h
16.09.2003 11,8 C 25,2 C 1024 hpa 0,0 mm 8,6 km/h
17.09.2003 11,1 C 26,4 C 1022 hpa 0,0 mm 7,4 km/h
18.09.2003 12,9 C 26,8 C 1019 hpa 0,0 mm 9,4 km/h
19.09.2003 15,1 C 28,4 C 1019 hpa 0,0 mm 13,6 km/h
20.09.2003 15,9 C 29,7 C 1021 hpa 0,0 mm 8,6 km/h
21.09.2003 14,4 C 29,7 C 1019 hpa 0,0 mm 10,8 km/h
22.09.2003 16,0 C 26,5 C 1008 hpa 0,3 mm 18,7 km/h
23.09.2003 7,5 C 15,6 C 1018 hpa 8,1 mm 13,3 km/h
24.09.2003 3,4 C 15,9 C 1029 hpa 0,0 mm 7,4 km/h
25.09.2003 4,5 C 17,2 C 1026 hpa 0,0 mm 12,6 km/h
26.09.2003 7,3 C 21,1 C 1018 hpa 0,0 mm 7,4 km/h
27.09.2003 8,3 C 15,8 C 1017 hpa 0,0 mm 5,0 km/h
28.09.2003 10,6 C 20,9 C 1010 hpa 0,6 mm 8,6 km/h
29.09.2003 7,8 C 15,5 C 1013 hpa 2,7 mm 12,6 km/h
30.09.2003 5,7 C 18,4 C 1014 hpa 0,0 mm 10,8 km/h



Eigene Webseite von Beepworld
 
Verantwortlich für den Inhalt dieser Seite ist ausschließlich der
Autor dieser Homepage, kontaktierbar über dieses Formular!